createdAt,value
2017-12-26T00:02:20.883Z,64.60
2017-12-26T00:04:48.315Z,65.00
2017-12-26T00:07:15.738Z,65.00
2017-12-26T00:09:43.168Z,64.90
2017-12-26T00:12:10.589Z,64.50
2017-12-26T00:14:38.020Z,64.70
2017-12-26T00:17:05.435Z,64.40
2017-12-26T00:19:32.868Z,64.40
2017-12-26T00:22:00.283Z,64.00
2017-12-26T00:24:27.715Z,64.10
2017-12-26T00:26:55.144Z,63.80
2017-12-26T00:29:22.572Z,63.80
2017-12-26T00:31:50.755Z,63.30
2017-12-26T00:34:18.175Z,63.30
2017-12-26T00:36:45.612Z,63.20
2017-12-26T00:39:13.027Z,63.00
2017-12-26T00:41:40.466Z,62.70
2017-12-26T00:44:07.889Z,62.20
2017-12-26T00:46:35.323Z,61.70
2017-12-26T00:49:02.752Z,61.40
2017-12-26T00:51:30.188Z,61.20
2017-12-26T00:53:57.612Z,61.70
2017-12-26T00:56:25.050Z,61.10
2017-12-26T00:58:52.472Z,61.00
2017-12-26T01:01:19.908Z,61.00
2017-12-26T01:03:47.333Z,61.00
2017-12-26T01:06:14.754Z,60.80
2017-12-26T01:08:42.171Z,61.10
2017-12-26T01:11:09.603Z,61.40
2017-12-26T01:13:37.019Z,61.40
2017-12-26T01:16:05.248Z,61.60
2017-12-26T01:18:32.668Z,61.60
2017-12-26T01:21:00.088Z,61.30
2017-12-26T01:23:27.521Z,61.30
2017-12-26T01:25:54.943Z,61.20
2017-12-26T01:28:22.371Z,61.00
2017-12-26T01:30:50.562Z,61.00
2017-12-26T01:33:17.996Z,60.90
2017-12-26T01:35:45.412Z,60.70
2017-12-26T01:38:12.956Z,60.50
2017-12-26T01:40:40.375Z,60.30
2017-12-26T01:43:07.808Z,60.10
2017-12-26T01:45:35.225Z,60.10
2017-12-26T01:48:02.666Z,60.10
2017-12-26T01:50:30.086Z,60.00
2017-12-26T01:52:58.292Z,60.10
2017-12-26T01:55:25.707Z,60.10
2017-12-26T01:57:53.139Z,60.00
2017-12-26T02:00:20.555Z,60.10
2017-12-26T02:02:47.988Z,60.10
2017-12-26T02:05:16.175Z,60.20
2017-12-26T02:07:43.604Z,60.00
2017-12-26T02:10:11.036Z,60.00
2017-12-26T02:12:38.455Z,59.70
2017-12-26T02:15:06.699Z,59.40
2017-12-26T02:17:34.119Z,59.40
2017-12-26T02:20:01.548Z,59.00
2017-12-26T02:22:28.967Z,59.00
2017-12-26T02:24:56.395Z,59.20
2017-12-26T02:27:23.820Z,59.10
2017-12-26T02:29:51.248Z,60.20
2017-12-26T02:32:18.676Z,60.10
2017-12-26T02:34:46.108Z,60.50
2017-12-26T02:37:13.519Z,60.70
2017-12-26T02:39:41.516Z,61.40
2017-12-26T02:42:08.940Z,61.80
2017-12-26T02:44:36.371Z,62.10
2017-12-26T02:47:03.799Z,62.30
2017-12-26T02:49:31.228Z,62.40
2017-12-26T02:51:58.642Z,62.40
2017-12-26T02:54:26.839Z,61.90
2017-12-26T02:56:54.255Z,61.90
2017-12-26T02:59:21.679Z,61.40
2017-12-26T03:01:49.108Z,61.00
2017-12-26T03:04:16.538Z,60.80
2017-12-26T03:06:43.959Z,60.60
2017-12-26T03:09:11.383Z,60.50
2017-12-26T03:11:39.056Z,60.20
2017-12-26T03:14:06.484Z,59.90
2017-12-26T03:16:33.915Z,60.00
2017-12-26T03:19:01.348Z,60.80
2017-12-26T03:21:28.784Z,60.20
2017-12-26T03:23:56.205Z,60.20
2017-12-26T03:26:24.403Z,60.00
2017-12-26T03:28:52.582Z,60.40
2017-12-26T03:31:20.017Z,59.60
2017-12-26T03:33:47.435Z,59.60
2017-12-26T03:36:14.883Z,59.50
2017-12-26T03:38:42.301Z,59.30
2017-12-26T03:41:09.715Z,59.00
2017-12-26T03:43:37.147Z,58.90
2017-12-26T03:46:04.564Z,58.80
2017-12-26T03:48:32.004Z,58.80
2017-12-26T03:50:59.432Z,58.60
2017-12-26T03:53:27.632Z,58.90
2017-12-26T03:55:55.056Z,58.60
2017-12-26T03:58:22.487Z,58.60
2017-12-26T04:00:49.907Z,58.50
2017-12-26T04:03:17.332Z,58.40
2017-12-26T04:05:45.525Z,58.40
2017-12-26T04:08:12.952Z,58.20
2017-12-26T04:10:40.370Z,58.00
2017-12-26T04:13:07.803Z,58.00
2017-12-26T04:15:35.223Z,57.80
2017-12-26T04:18:03.418Z,58.00
2017-12-26T04:20:30.843Z,57.90
2017-12-26T04:22:59.082Z,57.40
2017-12-26T04:25:26.499Z,57.30
2017-12-26T04:27:53.932Z,57.30
2017-12-26T04:30:21.359Z,57.10
2017-12-26T04:32:48.783Z,56.80
2017-12-26T04:35:16.211Z,56.70
2017-12-26T04:37:43.635Z,56.80
2017-12-26T04:40:11.086Z,56.80
2017-12-26T04:42:38.510Z,56.80
2017-12-26T04:45:05.927Z,56.80
2017-12-26T04:47:34.116Z,57.50
2017-12-26T04:50:01.565Z,56.80
2017-12-26T04:52:29.741Z,56.50
2017-12-26T04:54:57.167Z,56.50
2017-12-26T04:57:24.595Z,56.30
2017-12-26T04:59:52.016Z,56.10
2017-12-26T05:02:19.446Z,56.00
2017-12-26T05:04:46.872Z,55.90
2017-12-26T05:07:14.302Z,55.90
2017-12-26T05:09:41.724Z,56.00
2017-12-26T05:12:09.921Z,55.80
2017-12-26T05:14:37.344Z,55.80
2017-12-26T05:17:04.776Z,55.80
2017-12-26T05:19:32.204Z,55.80
2017-12-26T05:21:59.627Z,55.80
2017-12-26T05:24:27.810Z,56.10
2017-12-26T05:26:55.248Z,56.00
2017-12-26T05:29:22.671Z,56.10
2017-12-26T05:31:50.108Z,56.10
2017-12-26T05:34:17.532Z,56.20
2017-12-26T05:36:44.980Z,56.20
2017-12-26T05:39:13.275Z,56.30
2017-12-26T05:41:40.706Z,56.20
2017-12-26T05:44:08.155Z,56.30
2017-12-26T05:46:35.131Z,56.30
2017-12-26T05:49:02.589Z,56.40
2017-12-26T05:51:30.791Z,56.40
2017-12-26T05:53:58.223Z,56.40
2017-12-26T05:56:25.639Z,56.40
2017-12-26T05:58:53.071Z,56.30
2017-12-26T06:01:20.496Z,56.20
2017-12-26T06:03:47.927Z,56.00
2017-12-26T06:06:16.111Z,55.70
2017-12-26T06:08:43.539Z,55.70
2017-12-26T06:11:10.955Z,55.60
2017-12-26T06:13:38.386Z,55.60
2017-12-26T06:16:05.803Z,55.40
2017-12-26T06:18:33.224Z,55.20
2017-12-26T06:21:00.661Z,55.30
2017-12-26T06:23:28.084Z,55.20
2017-12-26T06:25:55.520Z,55.30
2017-12-26T06:28:22.941Z,55.40
2017-12-26T06:30:50.368Z,55.40
2017-12-26T06:33:17.787Z,55.50
2017-12-26T06:35:45.218Z,55.50
2017-12-26T06:38:12.650Z,55.70
2017-12-26T06:40:40.075Z,55.50
2017-12-26T06:43:08.263Z,55.30
2017-12-26T06:45:35.692Z,55.30
2017-12-26T06:48:03.111Z,55.00
2017-12-26T06:50:30.582Z,54.40
2017-12-26T06:52:58.007Z,54.10
2017-12-26T06:55:25.428Z,54.00
2017-12-26T06:57:53.618Z,53.50
2017-12-26T07:00:21.036Z,53.40
2017-12-26T07:02:48.459Z,53.30
2017-12-26T07:05:15.871Z,52.70
2017-12-26T07:07:43.303Z,52.50
2017-12-26T07:10:10.783Z,52.80
2017-12-26T07:12:38.971Z,53.00
2017-12-26T07:15:06.396Z,52.90
2017-12-26T07:17:33.832Z,52.80
2017-12-26T07:20:01.251Z,52.80
2017-12-26T07:22:28.670Z,53.00
2017-12-26T07:24:56.864Z,53.00
2017-12-26T07:27:24.300Z,52.90
2017-12-26T07:29:51.724Z,52.50
2017-12-26T07:32:19.159Z,52.50
2017-12-26T07:34:46.642Z,52.30
2017-12-26T07:37:14.107Z,52.20
2017-12-26T07:39:41.528Z,52.10
2017-12-26T07:42:09.073Z,52.00
2017-12-26T07:44:36.487Z,51.90
2017-12-26T07:47:03.923Z,52.00
2017-12-26T07:49:31.347Z,51.90
2017-12-26T07:51:58.763Z,51.90
2017-12-26T07:54:26.959Z,51.80
2017-12-26T07:56:54.375Z,51.70
2017-12-26T07:59:21.795Z,51.70
2017-12-26T08:01:49.219Z,51.70
2017-12-26T08:04:16.646Z,51.60
2017-12-26T08:06:44.831Z,50.60
2017-12-26T08:09:12.260Z,51.00
2017-12-26T08:11:39.677Z,50.30
2017-12-26T08:14:07.188Z,50.30
2017-12-26T08:16:34.596Z,50.30
2017-12-26T08:19:02.023Z,49.90
2017-12-26T08:21:29.444Z,49.80
2017-12-26T08:23:56.866Z,49.50
2017-12-26T08:26:24.278Z,48.90
2017-12-26T08:28:51.703Z,48.50
2017-12-26T08:31:20.635Z,47.70
2017-12-26T08:33:48.116Z,47.70
2017-12-26T08:36:15.528Z,47.50
2017-12-26T08:38:42.944Z,47.30
2017-12-26T08:41:10.391Z,47.00
2017-12-26T08:43:37.811Z,46.90
2017-12-26T08:46:05.238Z,46.50
2017-12-26T08:48:32.664Z,46.50
2017-12-26T08:51:00.090Z,46.40
2017-12-26T08:53:27.508Z,46.10
2017-12-26T08:55:54.935Z,46.00
2017-12-26T08:58:22.355Z,46.00
2017-12-26T09:00:49.784Z,46.10
2017-12-26T09:03:17.199Z,46.00
2017-12-26T09:05:44.681Z,45.90
2017-12-26T09:08:12.097Z,46.00
2017-12-26T09:10:39.612Z,46.10
2017-12-26T09:13:07.032Z,47.80
2017-12-26T09:15:34.448Z,45.00
2017-12-26T09:18:01.920Z,44.20
2017-12-26T09:20:29.423Z,43.80
2017-12-26T09:22:56.847Z,44.20
2017-12-26T09:25:24.287Z,44.50
2017-12-26T09:27:51.719Z,44.50
2017-12-26T09:30:19.142Z,44.60
2017-12-26T09:32:46.573Z,44.30
2017-12-26T09:35:14.119Z,44.50
2017-12-26T09:37:41.550Z,44.40
2017-12-26T09:40:09.735Z,44.50
2017-12-26T09:42:37.171Z,44.50
2017-12-26T09:45:04.598Z,44.60
2017-12-26T09:47:32.111Z,44.40
2017-12-26T09:49:59.531Z,44.40
2017-12-26T09:52:26.980Z,44.10
2017-12-26T09:54:54.408Z,43.70
2017-12-26T09:57:21.836Z,43.90
2017-12-26T09:59:49.270Z,43.00
2017-12-26T10:02:16.690Z,43.10
2017-12-26T10:04:44.119Z,42.50
2017-12-26T10:07:11.538Z,41.00
2017-12-26T10:09:39.155Z,41.30
2017-12-26T10:12:06.633Z,41.10
2017-12-26T10:14:34.012Z,40.60
2017-12-26T10:17:01.440Z,39.90
2017-12-26T10:19:29.627Z,39.60
2017-12-26T10:21:57.056Z,39.60
2017-12-26T10:24:24.488Z,40.10
2017-12-26T10:26:51.916Z,40.20
2017-12-26T10:29:19.384Z,40.20
2017-12-26T10:31:46.836Z,40.80
2017-12-26T10:34:14.268Z,40.30
2017-12-26T10:36:41.707Z,40.40
2017-12-26T10:39:09.896Z,41.00
2017-12-26T10:41:37.340Z,41.00
2017-12-26T10:44:04.760Z,41.00
2017-12-26T10:46:32.204Z,40.40
2017-12-26T10:48:59.693Z,38.70
2017-12-26T10:51:27.148Z,39.00
2017-12-26T10:53:54.564Z,38.60
2017-12-26T10:56:22.000Z,38.30
2017-12-26T10:58:49.429Z,37.70
2017-12-26T11:01:17.629Z,36.70
2017-12-26T11:03:45.048Z,36.70
2017-12-26T11:06:12.521Z,36.00
2017-12-26T11:08:39.944Z,35.40
2017-12-26T11:11:07.372Z,35.40
2017-12-26T11:13:34.814Z,33.30
2017-12-26T11:16:02.238Z,34.80
2017-12-26T11:18:30.446Z,33.50
2017-12-26T11:20:57.865Z,33.40
2017-12-26T11:23:25.300Z,33.40
2017-12-26T11:25:52.709Z,33.20
2017-12-26T11:28:20.176Z,33.00
2017-12-26T11:30:47.596Z,34.40
2017-12-26T11:33:15.021Z,33.10
2017-12-26T11:35:42.456Z,34.10
2017-12-26T11:38:09.880Z,34.50
2017-12-26T11:40:37.329Z,35.20
2017-12-26T11:43:04.753Z,35.50
2017-12-26T11:45:32.197Z,36.30
2017-12-26T11:47:59.621Z,36.30
2017-12-26T11:50:27.328Z,36.30
2017-12-26T11:52:54.753Z,35.90
2017-12-26T11:55:22.195Z,36.20
2017-12-26T11:57:49.620Z,37.20
2017-12-26T12:00:17.084Z,38.00
2017-12-26T12:02:44.517Z,39.10
2017-12-26T12:05:12.722Z,39.80
2017-12-26T12:07:40.157Z,39.90
2017-12-26T12:10:07.648Z,39.30
2017-12-26T12:12:35.076Z,38.20
2017-12-26T12:15:02.510Z,37.50
2017-12-26T12:17:29.933Z,36.90
2017-12-26T12:19:57.358Z,35.40
2017-12-26T12:22:24.785Z,34.80
2017-12-26T12:24:52.289Z,33.40
2017-12-26T12:27:19.717Z,34.10
2017-12-26T12:29:47.147Z,35.90
2017-12-26T12:32:15.344Z,37.70
2017-12-26T12:34:42.776Z,37.70
2017-12-26T12:37:10.234Z,37.30
2017-12-26T12:39:37.660Z,38.50
2017-12-26T12:42:05.880Z,39.60
2017-12-26T12:44:33.461Z,39.40
2017-12-26T12:47:00.932Z,37.70
2017-12-26T12:49:28.370Z,35.80
2017-12-26T12:51:55.808Z,34.50
2017-12-26T12:54:23.228Z,33.30
2017-12-26T12:56:51.432Z,29.80
2017-12-26T12:59:18.869Z,30.40
2017-12-26T13:01:46.296Z,30.40
2017-12-26T13:04:14.488Z,30.60
2017-12-26T13:06:41.925Z,30.40
2017-12-26T13:09:09.352Z,29.90
2017-12-26T13:11:36.777Z,29.20
2017-12-26T13:14:04.203Z,28.90
2017-12-26T13:16:31.629Z,28.10
2017-12-26T13:18:59.064Z,28.30
2017-12-26T13:21:26.489Z,28.80
2017-12-26T13:23:54.688Z,23.10
2017-12-26T13:26:22.116Z,23.00
2017-12-26T13:28:49.554Z,20.70
2017-12-26T13:31:16.977Z,17.10
2017-12-26T13:33:44.413Z,17.10
2017-12-26T13:36:11.836Z,15.30
2017-12-26T13:38:40.060Z,15.40
2017-12-26T13:41:07.469Z,15.40
2017-12-26T13:43:34.905Z,16.60
2017-12-26T13:46:03.092Z,18.10
2017-12-26T13:48:30.536Z,18.00
2017-12-26T13:50:57.954Z,20.40
2017-12-26T13:53:25.411Z,20.00
2017-12-26T13:55:52.828Z,21.60
2017-12-26T13:58:20.248Z,22.70
2017-12-26T14:00:47.683Z,22.00
2017-12-26T14:03:15.124Z,23.50
2017-12-26T14:05:42.553Z,26.10
2017-12-26T14:08:09.984Z,29.10
2017-12-26T14:10:37.407Z,30.30
2017-12-26T14:13:04.836Z,29.80
2017-12-26T14:15:32.267Z,28.30
2017-12-26T14:17:59.687Z,27.70
2017-12-26T14:20:27.123Z,28.80
2017-12-26T14:22:54.544Z,30.60
2017-12-26T14:25:21.976Z,33.30
2017-12-26T14:27:49.391Z,33.80
2017-12-26T14:30:16.857Z,36.20
2017-12-26T14:32:44.279Z,35.70
2017-12-26T14:35:11.699Z,35.00
2017-12-26T14:37:39.904Z,35.00
2017-12-26T14:40:07.332Z,34.90
2017-12-26T14:42:34.764Z,35.90
2017-12-26T14:45:02.183Z,34.90
2017-12-26T14:47:29.614Z,35.30
2017-12-26T14:49:57.037Z,35.20
2017-12-26T14:52:24.526Z,36.00
2017-12-26T14:54:52.979Z,36.80
2017-12-26T14:57:20.411Z,36.70
2017-12-26T14:59:47.827Z,37.10
2017-12-26T15:02:15.256Z,37.20
2017-12-26T15:04:43.447Z,37.00
2017-12-26T15:07:10.881Z,37.60
2017-12-26T15:09:38.299Z,35.70
2017-12-26T15:12:05.759Z,33.90
2017-12-26T15:14:33.179Z,33.20
2017-12-26T15:17:00.599Z,32.50
2017-12-26T15:19:28.175Z,32.60
2017-12-26T15:21:55.556Z,32.20
2017-12-26T15:24:22.982Z,30.00
2017-12-26T15:26:51.172Z,29.90
2017-12-26T15:29:18.616Z,29.90
2017-12-26T15:31:46.041Z,29.90
2017-12-26T15:34:13.467Z,30.00
2017-12-26T15:36:40.884Z,29.60
2017-12-26T15:39:09.283Z,29.60
2017-12-26T15:41:36.764Z,29.50
2017-12-26T15:44:04.235Z,30.00
2017-12-26T15:46:31.675Z,30.00
2017-12-26T15:48:59.099Z,30.00
2017-12-26T15:51:26.540Z,30.10
2017-12-26T15:53:54.727Z,30.00
2017-12-26T15:56:22.160Z,30.00
2017-12-26T15:58:49.594Z,30.30
2017-12-26T16:01:17.031Z,31.00
2017-12-26T16:03:44.456Z,31.00
2017-12-26T16:06:12.048Z,31.00
2017-12-26T16:08:39.467Z,31.20
2017-12-26T16:11:06.948Z,31.00
2017-12-26T16:13:34.371Z,30.80
2017-12-26T16:16:01.796Z,30.50
2017-12-26T16:18:29.227Z,30.40
2017-12-26T16:20:56.651Z,30.40
2017-12-26T16:23:24.092Z,30.80
2017-12-26T16:25:52.271Z,30.60
2017-12-26T16:28:19.704Z,30.50
2017-12-26T16:30:47.131Z,30.50
2017-12-26T16:33:14.621Z,30.90
2017-12-26T16:35:42.039Z,31.00
2017-12-26T16:38:09.478Z,31.30
2017-12-26T16:40:36.939Z,31.10
2017-12-26T16:43:04.367Z,31.30
2017-12-26T16:45:31.787Z,31.00
2017-12-26T16:47:59.211Z,31.00
2017-12-26T16:50:26.685Z,30.50
2017-12-26T16:52:54.090Z,30.40
2017-12-26T16:55:21.776Z,30.60
2017-12-26T16:57:49.211Z,30.40
2017-12-26T17:00:16.626Z,30.40
2017-12-26T17:02:44.046Z,30.00
2017-12-26T17:05:11.477Z,30.00
2017-12-26T17:07:38.968Z,30.00
2017-12-26T17:10:06.396Z,30.00
2017-12-26T17:12:33.815Z,30.00
2017-12-26T17:15:02.016Z,29.80
2017-12-26T17:17:29.439Z,29.80
2017-12-26T17:19:56.875Z,30.00
2017-12-26T17:22:24.291Z,29.80
2017-12-26T17:24:51.720Z,29.80
2017-12-26T17:27:19.913Z,29.70
2017-12-26T17:29:47.344Z,29.60
2017-12-26T17:32:14.770Z,30.00
2017-12-26T17:34:43.167Z,30.00
2017-12-26T17:37:10.591Z,30.00
2017-12-26T17:39:38.088Z,31.60
2017-12-26T17:42:05.513Z,32.90
2017-12-26T17:44:32.939Z,33.90
2017-12-26T17:47:00.379Z,34.30
2017-12-26T17:49:27.832Z,34.70
2017-12-26T17:51:55.258Z,34.90
2017-12-26T17:54:22.684Z,34.90
2017-12-26T17:56:50.110Z,35.30
2017-12-26T17:59:17.688Z,35.30
2017-12-26T18:01:45.115Z,35.70
2017-12-26T18:04:12.531Z,35.70
2017-12-26T18:06:39.959Z,36.20
2017-12-26T18:09:07.383Z,36.00
2017-12-26T18:11:34.804Z,35.70
2017-12-26T18:14:02.223Z,35.50
2017-12-26T18:16:29.672Z,35.60
2017-12-26T18:18:57.083Z,35.50
2017-12-26T18:21:24.507Z,35.30
2017-12-26T18:23:51.942Z,35.30
2017-12-26T18:26:19.363Z,35.30
2017-12-26T18:31:17.099Z,35.60
2017-12-26T18:33:44.531Z,35.60
2017-12-26T18:36:11.946Z,35.80
2017-12-26T18:38:40.147Z,36.20
2017-12-26T18:41:07.562Z,36.20
2017-12-26T18:43:34.994Z,36.40
2017-12-26T18:46:02.411Z,36.60
2017-12-26T18:48:29.838Z,36.90
2017-12-26T18:50:58.027Z,37.40
2017-12-26T18:53:25.449Z,37.40
2017-12-26T18:55:52.879Z,37.50
2017-12-26T18:58:20.303Z,37.30
2017-12-26T19:00:47.726Z,37.10
2017-12-26T19:03:15.919Z,36.80
2017-12-26T19:05:43.351Z,36.70
2017-12-26T19:08:10.780Z,36.70
2017-12-26T19:10:38.212Z,36.10
2017-12-26T19:13:05.629Z,36.10
2017-12-26T19:15:33.828Z,36.00
2017-12-26T19:18:01.247Z,35.90
2017-12-26T19:20:28.682Z,36.00
2017-12-26T19:22:56.090Z,35.90
2017-12-26T19:25:23.527Z,35.60
2017-12-26T19:27:51.702Z,36.00
2017-12-26T19:30:19.130Z,36.00
2017-12-26T19:32:46.551Z,36.40
2017-12-26T19:35:13.984Z,36.30
2017-12-26T19:37:41.398Z,36.40
2017-12-26T19:40:08.831Z,36.40
2017-12-26T19:42:36.242Z,36.40
2017-12-26T19:45:03.935Z,36.30
2017-12-26T19:47:31.350Z,36.10
2017-12-26T19:49:58.784Z,36.10
2017-12-26T19:52:26.987Z,36.60
2017-12-26T19:54:54.403Z,36.50
2017-12-26T19:57:21.830Z,36.60
2017-12-26T19:59:49.243Z,36.50
2017-12-26T20:02:16.747Z,36.70
2017-12-26T20:04:44.159Z,37.40
2017-12-26T20:07:11.594Z,36.90
2017-12-26T20:09:38.998Z,36.70
2017-12-26T20:12:06.423Z,36.80
2017-12-26T20:14:34.612Z,36.70
2017-12-26T20:17:02.043Z,36.70
2017-12-26T20:19:30.227Z,36.90
2017-12-26T20:21:57.647Z,36.80
2017-12-26T20:24:25.077Z,37.00
2017-12-26T20:26:52.552Z,37.10
2017-12-26T20:29:19.979Z,37.20
2017-12-26T20:31:47.391Z,37.20
2017-12-26T20:34:14.827Z,37.10
2017-12-26T20:36:42.238Z,37.00
2017-12-26T20:39:09.673Z,37.00
2017-12-26T20:41:37.846Z,37.00
2017-12-26T20:44:05.275Z,37.00
2017-12-26T20:46:33.451Z,37.40
2017-12-26T20:49:00.872Z,36.60
2017-12-26T20:51:28.303Z,36.70
2017-12-26T20:53:55.712Z,36.70
2017-12-26T20:56:23.131Z,36.80
2017-12-26T20:58:50.542Z,36.80
2017-12-26T21:01:18.740Z,36.80
2017-12-26T21:03:46.150Z,36.80
2017-12-26T21:06:13.578Z,36.70
2017-12-26T21:08:40.998Z,36.80
2017-12-26T21:11:09.191Z,36.90
2017-12-26T21:13:36.607Z,36.90
2017-12-26T21:16:04.035Z,36.90
2017-12-26T21:18:31.451Z,37.00
2017-12-26T21:20:58.875Z,37.30
2017-12-26T21:23:26.286Z,37.30
2017-12-26T21:25:53.721Z,37.50
2017-12-26T21:28:21.135Z,37.50
2017-12-26T21:30:48.551Z,37.50
2017-12-26T21:33:15.987Z,37.80
2017-12-26T21:35:43.395Z,37.80
2017-12-26T21:38:10.848Z,37.50
2017-12-26T21:40:38.375Z,37.30
2017-12-26T21:43:05.794Z,37.10
2017-12-26T21:45:33.202Z,36.70
2017-12-26T21:48:00.659Z,36.00
2017-12-26T21:50:28.046Z,36.00
2017-12-26T21:52:56.351Z,35.50
2017-12-26T21:55:23.768Z,35.40
2017-12-26T21:57:51.190Z,35.40
2017-12-26T22:00:18.611Z,35.10
2017-12-26T22:02:46.040Z,35.10
2017-12-26T22:05:13.460Z,35.00
2017-12-26T22:07:40.882Z,34.90
2017-12-26T22:10:08.380Z,35.10
2017-12-26T22:12:35.800Z,35.00
2017-12-26T22:15:03.223Z,34.90
2017-12-26T22:17:31.406Z,35.30
2017-12-26T22:19:58.866Z,35.20
2017-12-26T22:22:26.254Z,35.30
2017-12-26T22:24:53.704Z,34.50
2017-12-26T22:27:21.118Z,34.60
2017-12-26T22:29:49.320Z,34.30
2017-12-26T22:32:16.732Z,34.30
2017-12-26T22:34:44.158Z,34.60
2017-12-26T22:37:11.571Z,35.10
2017-12-26T22:39:39.967Z,35.20
2017-12-26T22:42:07.425Z,35.10
2017-12-26T22:44:34.809Z,36.00
2017-12-26T22:47:02.227Z,35.90
2017-12-26T22:49:29.643Z,34.80
2017-12-26T22:51:57.371Z,34.70
2017-12-26T22:54:24.785Z,35.60
2017-12-26T22:56:52.207Z,35.50
2017-12-26T22:59:19.627Z,35.70
2017-12-26T23:01:47.046Z,35.50
2017-12-26T23:04:15.228Z,35.70
2017-12-26T23:06:42.654Z,35.60
2017-12-26T23:09:10.083Z,35.70
2017-12-26T23:11:37.503Z,35.80
2017-12-26T23:14:10.551Z,36.00
2017-12-26T23:16:43.642Z,36.30
2017-12-26T23:19:11.063Z,36.00
2017-12-26T23:21:38.487Z,36.50
2017-12-26T23:24:11.495Z,37.00
2017-12-26T23:26:44.664Z,36.60
2017-12-26T23:29:17.757Z,36.30
2017-12-26T23:31:50.879Z,37.00
2017-12-26T23:34:23.878Z,37.00
2017-12-26T23:36:57.016Z,37.00
2017-12-26T23:39:30.187Z,36.70
2017-12-26T23:42:04.068Z,37.00
2017-12-26T23:44:37.075Z,36.90
2017-12-26T23:47:10.203Z,37.40
2017-12-26T23:49:43.299Z,38.60
2017-12-26T23:52:16.490Z,37.90
2017-12-26T23:54:49.591Z,37.80
2017-12-26T23:57:22.597Z,37.10
2017-12-26T23:59:55.623Z,36.90
